Time;durP1;ratioP1;P1;durP2;ratioP2;P2;SDS_P1;SDS_P2;PMS_P1;PMS_P2;Temp;Humidity;BMP_temperature;BMP_pressure;BME280_temperature;BME280_humidity;BME280_pressure;Samples;Min_cycle;Max_cycle;Signal;HPM_P1;HPM_P2
2021/03/20 00:01:20;;;;;;;5.50;3.93;;;-1.20;1.00;;;;;;5017503;28;20417;-84
2021/03/20 00:03:55;;;;;;;4.30;2.77;;;-1.20;1.00;;;;;;5017499;28;20434;-86
2021/03/20 00:06:26;;;;;;;6.23;3.70;;;-1.20;1.00;;;;;;5016219;28;20409;-84
2021/03/20 00:08:53;;;;;;;8.83;3.10;;;-1.20;1.00;;;;;;5017795;28;20437;-86
2021/03/20 00:11:20;;;;;;;10.83;3.27;;;-1.20;1.00;;;;;;5017386;28;20461;-90
2021/03/20 00:13:46;;;;;;;3.13;2.80;;;-1.20;1.00;;;;;;4999465;28;20440;-85
2021/03/20 00:16:13;;;;;;;4.67;4.27;;;-1.20;1.00;;;;;;5023452;28;20479;-86
2021/03/20 00:18:39;;;;;;;3.83;3.07;;;-1.20;1.00;;;;;;5018269;28;20417;-85
2021/03/20 00:21:05;;;;;;;3.07;2.60;;;-1.20;1.00;;;;;;5026225;28;20402;-84
2021/03/20 00:23:31;;;;;;;5.27;2.93;;;-1.20;1.00;;;;;;5022852;28;20425;-86
2021/03/20 00:25:56;;;;;;;7.43;4.00;;;-1.20;1.00;;;;;;5022836;28;20497;-85
2021/03/20 00:28:26;;;;;;;7.03;3.77;;;-1.10;1.00;;;;;;5016473;28;20194;-83
2021/03/20 00:30:58;;;;;;;4.70;3.70;;;-1.00;1.00;;;;;;4999949;28;20230;-84
2021/03/20 00:33:25;;;;;;;6.53;3.77;;;-1.00;1.00;;;;;;4997502;28;20419;-84
2021/03/20 00:35:51;;;;;;;5.57;3.10;;;-0.90;1.00;;;;;;5015419;28;20986;-83
2021/03/20 00:38:18;;;;;;;5.50;3.70;;;-0.80;1.00;;;;;;5015099;28;20445;-85
2021/03/20 00:40:44;;;;;;;4.93;3.30;;;-0.70;1.00;;;;;;5015136;28;20414;-85
2021/03/20 00:43:10;;;;;;;4.77;2.83;;;-0.60;1.00;;;;;;5015847;28;20434;-93
2021/03/20 00:45:35;;;;;;;5.73;4.07;;;-0.60;1.00;;;;;;5015595;28;20460;-85
2021/03/20 00:48:09;;;;;;;8.33;2.90;;;-0.50;1.00;;;;;;5015789;28;20937;-91
2021/03/20 00:50:36;;;;;;;6.47;3.50;;;-0.50;1.00;;;;;;5014719;28;20410;-84
2021/03/20 00:53:02;;;;;;;6.27;3.20;;;-0.40;1.00;;;;;;5015340;28;20464;-88
2021/03/20 00:55:27;;;;;;;5.87;3.40;;;-0.30;1.00;;;;;;5014441;28;20465;-84
2021/03/20 00:57:53;;;;;;;4.07;3.40;;;-0.30;1.00;;;;;;5015378;28;20249;-85
2021/03/20 01:00:22;;;;;;;4.77;3.40;;;-0.30;1.00;;;;;;5013601;28;20210;-85
2021/03/20 01:02:47;;;;;;;6.40;4.43;;;-0.40;1.00;;;;;;5015469;28;20171;-84
2021/03/20 01:05:14;;;;;;;6.63;3.43;;;-0.40;1.00;;;;;;4997122;28;21000;-85
2021/03/20 01:07:40;;;;;;;4.50;3.43;;;-0.50;1.00;;;;;;5014155;28;20178;-85
2021/03/20 01:10:10;;;;;;;5.13;3.00;;;-0.60;1.00;;;;;;5014486;28;20462;-92
2021/03/20 01:12:35;;;;;;;10.20;3.57;;;-0.70;1.00;;;;;;5020299;28;20422;-85
2021/03/20 01:15:03;;;;;;;4.97;3.07;;;-0.80;1.00;;;;;;5014521;28;20445;-85
2021/03/20 01:17:29;;;;;;;4.40;3.00;;;-0.90;1.00;;;;;;4997270;28;20175;-83
2021/03/20 01:19:54;;;;;;;5.03;4.10;;;-0.90;1.00;;;;;;4997190;28;20410;-85
2021/03/20 01:22:20;;;;;;;5.23;3.50;;;-1.10;1.00;;;;;;5017719;28;20251;-84
2021/03/20 01:24:46;;;;;;;4.80;4.00;;;-1.20;1.00;;;;;;5014142;28;20416;-84
2021/03/20 01:27:12;;;;;;;5.37;3.53;;;-1.20;1.00;;;;;;4997634;28;20715;-88
2021/03/20 01:29:37;;;;;;;6.60;4.40;;;-1.20;1.00;;;;;;4997985;28;20635;-84
2021/03/20 01:32:03;;;;;;;9.33;3.83;;;-1.30;1.00;;;;;;4996630;28;20209;-85
2021/03/20 01:34:29;;;;;;;8.37;3.83;;;-1.30;1.00;;;;;;5013654;28;20172;-84
2021/03/20 01:36:55;;;;;;;5.40;4.27;;;-1.30;1.00;;;;;;5013991;28;20954;-85
2021/03/20 01:39:23;;;;;;;9.03;3.37;;;-1.40;1.00;;;;;;4996347;28;20167;-85
2021/03/20 01:41:49;;;;;;;7.83;4.30;;;-1.40;1.00;;;;;;5006321;28;20233;-85
2021/03/20 01:44:20;;;;;;;6.30;4.67;;;-1.40;1.00;;;;;;4996130;28;20919;-84
2021/03/20 01:46:51;;;;;;;5.27;3.83;;;-1.50;1.00;;;;;;5013874;28;20175;-86
2021/03/20 01:49:19;;;;;;;5.30;3.80;;;-1.50;1.00;;;;;;4995727;28;20778;-86
2021/03/20 01:52:02;;;;;;;4.33;3.80;;;-1.50;2.30;;;;;;4995912;28;20506;-85
2021/03/20 01:54:43;;;;;;;6.80;4.07;;;-1.50;5.70;;;;;;5013774;28;20418;-84
2021/03/20 01:57:09;;;;;;;5.30;3.37;;;-1.40;10.20;;;;;;5008345;28;20417;-85
2021/03/20 01:59:35;;;;;;;10.37;5.77;;;-1.40;11.20;;;;;;5013959;28;20414;-84
2021/03/20 02:02:01;;;;;;;8.37;5.13;;;-1.30;12.20;;;;;;5013313;28;20770;-83
2021/03/20 02:04:27;;;;;;;6.10;5.03;;;-1.30;12.50;;;;;;5011933;28;20482;-86
2021/03/20 02:06:53;;;;;;;8.60;3.80;;;-1.30;10.70;;;;;;5013270;28;20509;-85
2021/03/20 02:09:19;;;;;;;6.40;4.30;;;-1.20;12.50;;;;;;4998010;28;20452;-84
2021/03/20 02:12:28;;;;;;;3.90;3.37;;;-1.20;12.60;;;;;;5012939;28;20171;-83
2021/03/20 02:15:44;;;;;;;5.60;4.20;;;-1.20;6.30;;;;;;4939265;29;20476;-87
2021/03/20 02:18:35;;;;;;;4.90;4.27;;;-1.10;1.00;;;;;;4936558;29;20412;-91
2021/03/20 02:21:16;;;;;;;4.97;4.13;;;-1.00;1.00;;;;;;4958767;28;20941;-85
2021/03/20 02:24:19;;;;;;;9.47;4.10;;;-0.90;1.00;;;;;;4993693;28;20996;-83
2021/03/20 02:27:16;;;;;;;7.37;3.70;;;-0.70;1.00;;;;;;5011439;28;20514;-83
2021/03/20 02:30:01;;;;;;;3.33;3.03;;;-0.60;1.00;;;;;;5013144;28;20422;-85
2021/03/20 02:32:35;;;;;;;7.40;4.40;;;-0.60;1.00;;;;;;5022597;28;20426;-93
2021/03/20 02:35:28;;;;;;;8.67;4.10;;;-0.50;1.00;;;;;;5013680;28;20980;-93
2021/03/20 02:38:09;;;;;;;5.00;3.60;;;-0.40;1.00;;;;;;5013686;28;20410;-86
2021/03/20 02:40:54;;;;;;;4.53;3.13;;;-0.40;1.00;;;;;;5012216;28;20510;-92
2021/03/20 02:43:38;;;;;;;6.07;2.87;;;-0.30;1.00;;;;;;5012983;28;20406;-91
2021/03/20 02:46:10;;;;;;;6.67;4.07;;;-0.20;1.00;;;;;;5013894;28;20523;-85
2021/03/20 02:49:08;;;;;;;16.30;3.33;;;-0.10;1.00;;;;;;4997551;28;20417;-84
2021/03/20 02:51:50;;;;;;;7.40;3.30;;;-0.10;1.00;;;;;;5020521;28;20437;-85
2021/03/20 02:54:42;;;;;;;4.37;2.83;;;0.00;1.00;;;;;;5022479;28;20438;-85
2021/03/20 02:57:24;;;;;;;4.60;3.67;;;0.10;1.00;;;;;;5041035;28;20421;-84
2021/03/20 02:59:59;;;;;;;5.10;3.07;;;0.10;1.00;;;;;;5019686;28;20424;-93
2021/03/20 03:02:29;;;;;;;5.63;3.00;;;0.10;1.00;;;;;;5015264;28;20898;-84
2021/03/20 03:05:20;;;;;;;5.20;4.17;;;0.20;1.00;;;;;;4995679;28;20414;-93
2021/03/20 03:08:01;;;;;;;4.83;3.70;;;0.20;1.00;;;;;;4996688;28;20433;-89
2021/03/20 03:10:48;;;;;;;6.33;2.53;;;0.20;1.00;;;;;;4997108;28;20974;-90
2021/03/20 03:13:20;;;;;;;4.20;2.97;;;0.30;1.00;;;;;;5008704;28;20491;-85
2021/03/20 03:15:51;;;;;;;7.47;3.40;;;0.30;1.00;;;;;;4995909;28;20827;-90
2021/03/20 03:18:23;;;;;;;4.50;2.90;;;0.40;1.00;;;;;;5013502;28;20417;-88
2021/03/20 03:20:55;;;;;;;6.03;3.33;;;0.40;1.00;;;;;;5012770;28;20417;-85
2021/03/20 03:23:25;;;;;;;6.60;3.10;;;0.40;1.00;;;;;;4995024;28;20410;-88
2021/03/20 03:26:04;;;;;;;5.10;2.97;;;0.50;1.00;;;;;;5012978;28;20517;-85
2021/03/20 03:28:31;;;;;;;4.20;1.30;;;0.50;1.00;;;;;;5013714;28;20417;-89
2021/03/20 03:30:59;;;;;;;6.60;2.83;;;0.50;1.00;;;;;;5014843;28;20418;-86
2021/03/20 03:33:35;;;;;;;2.87;2.60;;;0.50;1.00;;;;;;4999656;28;20464;-85
2021/03/20 03:36:08;;;;;;;6.70;1.90;;;0.50;1.00;;;;;;5017270;28;20527;-86
2021/03/20 03:38:49;;;;;;;5.03;2.53;;;0.60;1.00;;;;;;4994282;28;20440;-86
2021/03/20 03:41:28;;;;;;;5.80;2.10;;;0.50;1.00;;;;;;5024071;28;20422;-86
2021/03/20 03:43:56;;;;;;;4.17;1.70;;;0.70;1.00;;;;;;4999907;28;20410;-86
2021/03/20 03:46:26;;;;;;;4.17;3.20;;;0.70;1.00;;;;;;5016047;28;20460;-94
2021/03/20 03:48:54;;;;;;;6.77;3.80;;;0.70;1.00;;;;;;4999477;28;20421;-87
2021/03/20 03:51:20;;;;;;;3.63;2.40;;;0.70;1.00;;;;;;5017101;28;20414;-86
2021/03/20 03:53:45;;;;;;;3.70;1.87;;;0.70;1.00;;;;;;5017296;28;20420;-91
2021/03/20 03:56:50;;;;;;;3.73;2.40;;;0.80;1.00;;;;;;5017764;28;20461;-85
2021/03/20 03:59:18;;;;;;;4.10;2.60;;;0.80;1.00;;;;;;5015698;28;20167;-93
2021/03/20 04:02:34;;;;;;;4.83;2.27;;;0.80;1.00;;;;;;5017427;28;20413;-86
2021/03/20 04:05:10;;;;;;;3.67;1.93;;;0.90;1.00;;;;;;4989486;28;20789;-85
2021/03/20 04:07:47;;;;;;;3.40;2.60;;;0.90;1.00;;;;;;5017946;28;20512;-94
2021/03/20 04:10:25;;;;;;;3.43;2.17;;;0.90;1.00;;;;;;5012834;28;20551;-86
2021/03/20 04:13:00;;;;;;;4.10;1.87;;;0.90;1.00;;;;;;5011600;28;20477;-87
2021/03/20 04:15:45;;;;;;;3.43;2.73;;;0.90;1.00;;;;;;5016289;28;20472;-92
2021/03/20 04:18:18;;;;;;;4.47;2.57;;;0.90;1.00;;;;;;5007889;28;20406;-93
2021/03/20 04:21:07;;;;;;;3.07;1.70;;;0.90;1.00;;;;;;5016446;28;20454;-93
2021/03/20 04:23:36;;;;;;;5.83;1.90;;;0.90;1.00;;;;;;4997694;28;20517;-92
2021/03/20 04:26:15;;;;;;;6.57;1.83;;;0.90;1.00;;;;;;4994245;28;20934;-86
2021/03/20 04:28:55;;;;;;;5.77;2.60;;;0.90;1.00;;;;;;5005191;28;20513;-90
2021/03/20 04:31:26;;;;;;;2.63;1.40;;;0.80;1.00;;;;;;4999361;28;20429;-85
2021/03/20 04:34:07;;;;;;;4.53;2.30;;;0.90;1.00;;;;;;5013376;28;20418;-87
2021/03/20 04:36:40;;;;;;;5.80;2.20;;;0.80;1.00;;;;;;5013343;28;21139;-88
2021/03/20 04:39:13;;;;;;;4.00;2.30;;;0.80;1.00;;;;;;4994735;28;20464;-87
2021/03/20 04:41:39;;;;;;;5.50;2.40;;;0.80;1.00;;;;;;5015372;28;20493;-86
2021/03/20 04:44:06;;;;;;;3.80;1.83;;;0.80;1.00;;;;;;5000005;28;20828;-86
2021/03/20 04:46:34;;;;;;;1.97;1.70;;;0.80;1.00;;;;;;5014577;28;20423;-92
2021/03/20 04:49:18;;;;;;;3.87;1.87;;;0.80;1.00;;;;;;5015299;28;20418;-91
2021/03/20 04:51:52;;;;;;;3.40;2.07;;;0.90;1.00;;;;;;4995254;28;20780;-86
2021/03/20 04:54:23;;;;;;;4.23;1.90;;;0.90;1.00;;;;;;5004234;28;20433;-86
2021/03/20 04:57:09;;;;;;;2.37;1.37;;;0.90;1.00;;;;;;4997891;28;20448;-88
2021/03/20 04:59:54;;;;;;;4.10;2.23;;;0.90;1.00;;;;;;5014082;28;20426;-90
2021/03/20 05:02:26;;;;;;;2.43;1.77;;;0.90;1.00;;;;;;5013998;28;20428;-86
2021/03/20 05:04:57;;;;;;;4.63;2.27;;;0.90;1.00;;;;;;4995349;28;20421;-91
2021/03/20 05:07:24;;;;;;;3.73;1.40;;;0.90;1.00;;;;;;5015130;28;20433;-86
2021/03/20 05:09:58;;;;;;;3.17;1.40;;;0.90;1.00;;;;;;4997896;28;20513;-94
2021/03/20 05:12:26;;;;;;;3.23;1.60;;;0.90;1.00;;;;;;5011622;28;20421;-87
2021/03/20 05:15:21;;;;;;;5.87;2.20;;;0.90;1.00;;;;;;5016652;28;21007;-93
2021/03/20 05:17:46;;;;;;;6.50;2.97;;;0.90;1.00;;;;;;5002806;28;20432;-95
2021/03/20 05:20:12;;;;;;;3.37;2.50;;;0.90;1.00;;;;;;4986159;28;20434;-90
2021/03/20 05:22:38;;;;;;;2.97;1.73;;;0.90;1.00;;;;;;5012074;28;20259;-87
2021/03/20 05:25:05;;;;;;;4.20;2.77;;;0.90;1.00;;;;;;5002618;28;20418;-85
2021/03/20 05:27:33;;;;;;;5.53;1.90;;;0.90;1.00;;;;;;5008262;28;20213;-87
2021/03/20 05:29:59;;;;;;;4.17;2.57;;;0.90;1.00;;;;;;5000655;28;20513;-84
2021/03/20 05:32:50;;;;;;;2.70;1.90;;;0.90;1.00;;;;;;5001203;28;20465;-86
2021/03/20 05:35:21;;;;;;;4.00;1.80;;;0.90;1.00;;;;;;5012838;28;20476;-89
2021/03/20 05:37:47;;;;;;;2.47;1.40;;;0.90;1.00;;;;;;5002097;28;20418;-88
2021/03/20 05:40:23;;;;;;;4.20;2.60;;;1.00;1.00;;;;;;4998617;28;20487;-86
2021/03/20 05:43:19;;;;;;;4.73;1.10;;;1.10;1.00;;;;;;4996119;28;20201;-88
2021/03/20 05:46:30;;;;;;;5.33;2.80;;;1.10;1.00;;;;;;5013258;28;20444;-88
2021/03/20 05:49:02;;;;;;;3.20;2.37;;;1.20;1.00;;;;;;5017090;28;21421;-85
2021/03/20 05:51:33;;;;;;;4.53;3.43;;;1.30;1.00;;;;;;5013341;28;20440;-90
2021/03/20 05:53:58;;;;;;;4.10;1.47;;;1.40;1.00;;;;;;5012174;28;20424;-85
2021/03/20 05:56:39;;;;;;;3.63;2.00;;;1.50;1.00;;;;;;5014061;28;20469;-86
2021/03/20 05:59:16;;;;;;;4.33;0.83;;;1.50;1.00;;;;;;5014301;28;20181;-87
2021/03/20 06:01:51;;;;;;;3.93;2.07;;;1.60;1.00;;;;;;5001116;28;20935;-88
2021/03/20 06:04:22;;;;;;;4.27;1.70;;;1.70;1.00;;;;;;5008923;28;20432;-89
2021/03/20 06:07:17;;;;;;;2.63;1.10;;;1.70;1.00;;;;;;5014068;28;20422;-91
2021/03/20 06:10:01;;;;;;;1.47;0.80;;;1.80;1.00;;;;;;5014095;28;20462;-92
2021/03/20 06:13:18;;;;;;;6.40;1.63;;;1.80;1.00;;;;;;5013344;28;20492;-89
2021/03/20 06:16:10;;;;;;;4.90;1.40;;;2.00;1.00;;;;;;4973014;28;20476;-92
2021/03/20 06:19:09;;;;;;;2.33;0.97;;;2.10;1.00;;;;;;4955609;28;20431;-88
2021/03/20 06:21:40;;;;;;;3.03;1.07;;;2.20;1.00;;;;;;4997586;28;20414;-87
2021/03/20 06:24:44;;;;;;;4.70;0.97;;;2.20;1.00;;;;;;4996378;28;20789;-86
2021/03/20 06:27:14;;;;;;;4.13;0.60;;;2.20;1.00;;;;;;5014407;28;20430;-91
2021/03/20 06:29:49;;;;;;;1.43;0.70;;;2.20;1.00;;;;;;5013632;28;20926;-87
2021/03/20 06:32:27;;;;;;;1.60;0.80;;;2.20;1.00;;;;;;5008473;28;20441;-91
2021/03/20 06:35:16;;;;;;;2.90;1.00;;;2.40;1.00;;;;;;5003045;28;20456;-86
2021/03/20 06:37:47;;;;;;;2.20;1.17;;;2.50;1.00;;;;;;4982519;28;20416;-91
2021/03/20 06:41:04;;;;;;;1.77;1.30;;;2.60;99.90;;;;;;5001640;28;20829;-90
2021/03/20 06:43:37;;;;;;;2.93;0.80;;;2.70;99.90;;;;;;4951368;28;20937;-88
2021/03/20 06:46:02;;;;;;;3.43;0.33;;;2.70;26.60;;;;;;5009316;28;20455;-87
2021/03/20 06:48:31;;;;;;;1.00;0.60;;;2.80;1.00;;;;;;5012443;28;21005;-87
2021/03/20 06:51:00;;;;;;;1.47;0.70;;;2.90;1.00;;;;;;5013035;28;20255;-88
2021/03/20 06:53:49;;;;;;;1.83;0.80;;;2.90;1.00;;;;;;5014144;28;20420;-88
2021/03/20 06:56:17;;;;;;;1.90;1.10;;;3.00;1.00;;;;;;4987127;28;20474;-88
2021/03/20 06:58:43;;;;;;;2.43;0.50;;;2.90;85.60;;;;;;5000602;28;20436;-88
2021/03/20 07:01:19;;;;;;;2.00;0.33;;;2.90;1.00;;;;;;5012377;28;20477;-87
2021/03/20 07:04:03;;;;;;;0.70;0.30;;;2.90;1.00;;;;;;4994029;28;20559;-88
2021/03/20 07:06:56;;;;;;;1.60;0.50;;;2.80;99.90;;;;;;5009783;28;20415;-88
2021/03/20 07:09:21;;;;;;;0.80;0.50;;;2.90;1.00;;;;;;5011717;28;20944;-88
2021/03/20 07:12:10;;;;;;;2.90;0.50;;;2.90;99.90;;;;;;5013628;28;20425;-90
2021/03/20 07:14:41;;;;;;;1.17;0.57;;;2.90;99.90;;;;;;4989090;28;20213;-89
2021/03/20 07:17:23;;;;;;;1.57;0.57;;;3.00;99.90;;;;;;5012583;28;20454;-88
2021/03/20 07:19:57;;;;;;;2.67;0.40;;;2.90;99.90;;;;;;4995541;28;20440;-89
2021/03/20 07:22:43;;;;;;;0.80;0.70;;;3.10;1.00;;;;;;4996139;28;20494;-88
2021/03/20 07:25:33;;;;;;;1.43;0.50;;;3.10;1.00;;;;;;4996046;28;20410;-89
2021/03/20 07:28:20;;;;;;;2.03;0.93;;;3.10;1.00;;;;;;4986973;28;20465;-89
2021/03/20 07:30:48;;;;;;;1.77;0.70;;;3.10;99.90;;;;;;4992630;28;20756;-89
2021/03/20 07:33:30;;;;;;;3.83;0.40;;;3.10;99.90;;;;;;5014103;28;20477;-89
2021/03/20 07:36:15;;;;;;;1.27;0.50;;;3.20;99.90;;;;;;4996355;28;20884;-90
2021/03/20 07:38:41;;;;;;;1.20;0.40;;;3.30;99.90;;;;;;4977087;28;20428;-88
2021/03/20 07:41:13;;;;;;;2.83;1.00;;;3.30;67.60;;;;;;4976991;28;20421;-89
2021/03/20 07:43:40;;;;;;;1.97;0.90;;;3.50;1.00;;;;;;4996267;28;20416;-88
2021/03/20 07:46:17;;;;;;;3.30;1.20;;;3.40;1.00;;;;;;5007785;28;20472;-91
2021/03/20 07:48:45;;;;;;;2.27;0.40;;;3.60;1.00;;;;;;5021852;28;20944;-89
2021/03/20 07:51:12;;;;;;;3.43;1.00;;;3.70;1.00;;;;;;5007964;28;20412;-89
2021/03/20 07:53:49;;;;;;;2.97;0.60;;;3.80;1.00;;;;;;5007500;28;20424;-88
2021/03/20 07:56:36;;;;;;;1.20;0.43;;;4.00;99.90;;;;;;5014130;28;20468;-89
2021/03/20 07:59:26;;;;;;;1.67;0.53;;;4.10;99.90;;;;;;5000432;28;20424;-89
2021/03/20 08:02:03;;;;;;;1.30;0.40;;;4.20;99.90;;;;;;4987847;28;20525;-89
2021/03/20 08:04:48;;;;;;;1.83;0.70;;;4.40;1.00;;;;;;4999229;28;20772;-88
2021/03/20 08:07:33;;;;;;;0.80;0.40;;;4.70;1.00;;;;;;5014061;28;20417;-89
2021/03/20 08:10:14;;;;;;;4.87;0.60;;;5.10;1.00;;;;;;4996044;28;20500;-89
2021/03/20 08:13:01;;;;;;;1.93;0.53;;;5.50;1.00;;;;;;4995730;28;20429;-89
2021/03/20 08:15:39;;;;;;;1.17;0.70;;;5.80;99.90;;;;;;4994335;28;20811;-89
2021/03/20 08:18:16;;;;;;;1.60;0.60;;;5.90;99.90;;;;;;5018176;28;20460;-89
2021/03/20 08:20:50;;;;;;;2.37;0.40;;;6.20;99.90;;;;;;5019281;28;20407;-89
2021/03/20 08:23:51;;;;;;;1.10;0.50;;;6.40;99.90;;;;;;5015597;28;20409;-89
2021/03/20 08:26:22;;;;;;;2.57;0.80;;;6.70;99.90;;;;;;5016889;28;20425;-89
2021/03/20 08:29:05;;;;;;;0.87;0.50;;;6.70;99.90;;;;;;5019576;28;20398;-90
2021/03/20 08:31:53;;;;;;;3.83;1.10;;;6.60;99.90;;;;;;4999246;28;20453;-90
2021/03/20 08:34:52;;;;;;;2.00;1.00;;;6.80;99.90;;;;;;4995803;28;20433;-89
2021/03/20 08:37:35;;;;;;;1.70;0.63;;;6.80;99.90;;;;;;5016209;28;20464;-88
2021/03/20 08:40:46;;;;;;;1.43;0.73;;;6.90;99.90;;;;;;4999190;28;20491;-88
2021/03/20 08:43:26;;;;;;;2.63;1.03;;;6.80;99.90;;;;;;5014705;28;20524;-90
2021/03/20 08:45:55;;;;;;;2.93;0.60;;;6.90;99.90;;;;;;4998245;28;20417;-89
2021/03/20 08:48:35;;;;;;;0.90;0.53;;;7.00;97.90;;;;;;5014455;28;20822;-88
2021/03/20 08:51:40;;;;;;;2.63;0.70;;;7.20;96.10;;;;;;5016498;28;20507;-87
2021/03/20 08:54:12;;;;;;;2.87;0.50;;;7.10;55.30;;;;;;5005409;28;20448;-91
2021/03/20 08:57:07;;;;;;;4.30;1.10;;;6.90;45.60;;;;;;5012749;28;20474;-86
2021/03/20 08:59:44;;;;;;;1.60;0.43;;;7.00;42.10;;;;;;5014808;28;21122;-90
2021/03/20 09:02:25;;;;;;;1.67;0.73;;;7.10;49.60;;;;;;5008298;28;20428;-89
2021/03/20 09:04:54;;;;;;;1.60;0.40;;;7.50;47.00;;;;;;4995300;28;20410;-86
2021/03/20 09:07:26;;;;;;;2.20;0.37;;;7.60;33.40;;;;;;5013641;28;20489;-87
2021/03/20 09:09:56;;;;;;;1.50;0.40;;;7.60;38.50;;;;;;5000221;28;20456;-87
2021/03/20 09:12:45;;;;;;;2.07;0.70;;;7.60;23.40;;;;;;5013493;28;20501;-87
2021/03/20 09:15:27;;;;;;;2.10;0.40;;;7.70;17.90;;;;;;4995699;28;20458;-89
2021/03/20 09:17:54;;;;;;;1.90;0.73;;;8.10;9.90;;;;;;5007952;28;20883;-88
2021/03/20 09:20:38;;;;;;;1.27;0.30;;;8.20;2.50;;;;;;5013249;28;20418;-87
2021/03/20 09:23:06;;;;;;;2.60;0.47;;;8.20;1.00;;;;;;4997932;28;20887;-87
2021/03/20 09:25:38;;;;;;;2.23;0.53;;;8.10;1.00;;;;;;5014386;28;20426;-89
2021/03/20 09:28:27;;;;;;;3.00;0.40;;;7.90;1.00;;;;;;4996199;28;20952;-89
2021/03/20 09:31:15;;;;;;;1.33;0.60;;;8.00;1.00;;;;;;4996436;28;20517;-86
2021/03/20 09:33:40;;;;;;;0.80;0.20;;;8.20;1.00;;;;;;5001023;28;20452;-89
2021/03/20 09:36:21;;;;;;;0.93;0.20;;;8.40;1.00;;;;;;5034323;28;20472;-88
2021/03/20 09:38:54;;;;;;;3.30;0.80;;;8.60;1.00;;;;;;5034265;28;20170;-90
2021/03/20 09:41:21;;;;;;;0.70;0.20;;;8.70;1.00;;;;;;5033918;28;20413;-89
2021/03/20 09:44:09;;;;;;;2.53;0.47;;;8.50;1.00;;;;;;5016151;28;20428;-87
2021/03/20 09:46:38;;;;;;;2.13;0.70;;;8.20;1.00;;;;;;5035555;28;20420;-86
2021/03/20 09:49:26;;;;;;;1.47;0.60;;;8.00;1.00;;;;;;5033195;28;20448;-85
2021/03/20 09:51:53;;;;;;;2.37;0.33;;;7.60;1.00;;;;;;5023531;28;20429;-85
2021/03/20 09:54:22;;;;;;;2.30;0.90;;;7.40;1.00;;;;;;5034166;28;20495;-87
2021/03/20 09:56:49;;;;;;;4.20;0.67;;;7.40;1.00;;;;;;5022677;28;20535;-87
2021/03/20 09:59:27;;;;;;;2.20;0.40;;;7.40;1.00;;;;;;4996010;28;20509;-87
2021/03/20 10:02:00;;;;;;;2.20;0.70;;;7.50;1.00;;;;;;5013115;28;20417;-86
2021/03/20 10:04:45;;;;;;;1.87;0.33;;;7.40;1.00;;;;;;4995832;28;20436;-87
2021/03/20 10:07:26;;;;;;;2.30;0.50;;;7.40;1.00;;;;;;5013684;28;20410;-87
2021/03/20 10:10:27;;;;;;;1.97;0.60;;;7.50;1.00;;;;;;5012233;28;20508;-86
2021/03/20 10:12:56;;;;;;;2.10;0.67;;;7.50;1.00;;;;;;5013027;28;20442;-86
2021/03/20 10:15:28;;;;;;;1.77;0.63;;;7.40;1.00;;;;;;4995502;28;20473;-87
2021/03/20 10:18:06;;;;;;;2.27;0.47;;;7.30;1.00;;;;;;5013523;28;20406;-87
2021/03/20 10:20:41;;;;;;;2.17;0.73;;;7.40;1.00;;;;;;4996056;28;20422;-87
2021/03/20 10:23:25;;;;;;;3.17;0.90;;;7.40;1.00;;;;;;4996968;28;20771;-87
2021/03/20 10:25:54;;;;;;;1.23;0.33;;;7.50;1.00;;;;;;5014677;28;20862;-87
2021/03/20 10:28:28;;;;;;;2.87;0.80;;;7.50;1.00;;;;;;4996019;28;20418;-88
2021/03/20 10:31:03;;;;;;;2.00;1.03;;;7.40;1.00;;;;;;5012094;28;20425;-86
2021/03/20 10:33:42;;;;;;;2.03;0.67;;;7.30;1.00;;;;;;5012434;28;20410;-87
2021/03/20 10:36:29;;;;;;;2.67;0.70;;;7.30;1.00;;;;;;4995162;28;20484;-87
2021/03/20 10:38:55;;;;;;;3.53;1.00;;;7.50;1.00;;;;;;4994769;28;20422;-86
2021/03/20 10:41:39;;;;;;;2.80;1.10;;;7.80;1.00;;;;;;4994757;28;20472;-87
2021/03/20 10:44:21;;;;;;;3.03;0.67;;;8.10;1.00;;;;;;4995056;28;20257;-86
2021/03/20 10:46:48;;;;;;;2.50;0.90;;;8.40;1.00;;;;;;4995055;28;20440;-86
2021/03/20 10:49:23;;;;;;;6.90;1.40;;;8.80;1.00;;;;;;4995483;28;20500;-88
2021/03/20 10:51:51;;;;;;;1.37;1.07;;;9.10;1.00;;;;;;5012515;28;20430;-87
2021/03/20 10:54:34;;;;;;;3.33;0.73;;;9.60;1.00;;;;;;5001440;28;20415;-86
2021/03/20 10:57:08;;;;;;;1.10;0.50;;;9.90;1.00;;;;;;4992545;28;20420;-85
2021/03/20 10:59:37;;;;;;;3.60;0.70;;;9.50;1.00;;;;;;4991049;28;20419;-86
2021/03/20 11:02:30;;;;;;;3.17;1.00;;;9.10;1.00;;;;;;4975044;28;20423;-86
2021/03/20 11:05:22;;;;;;;3.07;1.57;;;8.80;1.00;;;;;;5006784;28;20433;-87
2021/03/20 11:07:54;;;;;;;7.40;2.63;;;8.40;1.00;;;;;;4994945;28;20409;-86
2021/03/20 11:10:44;;;;;;;4.60;1.13;;;8.20;1.00;;;;;;4994096;28;20497;-86
2021/03/20 11:13:29;;;;;;;2.60;1.00;;;7.90;1.00;;;;;;5012654;28;20402;-87
2021/03/20 11:16:12;;;;;;;2.17;1.00;;;7.80;1.00;;;;;;5011647;28;21025;-86
2021/03/20 11:18:46;;;;;;;2.97;1.47;;;7.80;2.40;;;;;;5001470;28;20431;-86
2021/03/20 11:21:30;;;;;;;4.27;1.83;;;7.60;11.60;;;;;;4993808;28;20521;-86
2021/03/20 11:24:00;;;;;;;2.97;1.43;;;7.60;12.90;;;;;;5011962;28;20425;-85
2021/03/20 11:26:50;;;;;;;4.43;1.17;;;7.70;14.30;;;;;;5011469;28;20433;-88
2021/03/20 11:29:29;;;;;;;2.20;1.03;;;7.80;14.90;;;;;;4993906;28;20410;-87
2021/03/20 11:32:02;;;;;;;5.53;1.93;;;7.80;15.00;;;;;;5011815;28;20441;-87
2021/03/20 11:34:41;;;;;;;3.60;1.40;;;7.90;16.60;;;;;;4993779;28;20426;-86
2021/03/20 11:37:20;;;;;;;1.90;0.87;;;8.10;17.00;;;;;;4994402;28;20437;-87
2021/03/20 11:39:53;;;;;;;4.33;1.00;;;8.40;15.80;;;;;;4994424;28;20499;-88
2021/03/20 11:42:24;;;;;;;2.37;1.17;;;8.80;17.00;;;;;;4994830;28;20461;-86
2021/03/20 11:44:50;;;;;;;2.53;1.20;;;9.10;11.10;;;;;;5010537;28;20434;-86
2021/03/20 11:47:27;;;;;;;4.47;1.87;;;9.50;13.50;;;;;;4993793;28;20445;-87
2021/03/20 11:49:58;;;;;;;3.80;1.47;;;9.90;17.90;;;;;;5010009;28;20469;-87
2021/03/20 11:52:44;;;;;;;3.60;0.87;;;10.30;6.70;;;;;;5015671;28;20440;-87
2021/03/20 11:55:17;;;;;;;4.53;0.97;;;10.70;2.70;;;;;;4997554;28;20492;-85
2021/03/20 11:57:44;;;;;;;1.53;0.97;;;10.60;1.00;;;;;;5012119;28;20438;-86
2021/03/20 12:00:31;;;;;;;3.60;1.43;;;10.50;1.00;;;;;;4994943;28;20438;-86
2021/03/20 12:02:57;;;;;;;2.97;1.70;;;10.20;2.90;;;;;;4994296;28;20436;-87
2021/03/20 12:05:25;;;;;;;3.07;1.07;;;10.70;18.90;;;;;;5013741;28;20890;-85
2021/03/20 12:08:10;;;;;;;2.73;1.03;;;10.90;11.10;;;;;;5013876;28;20188;-86
2021/03/20 12:10:36;;;;;;;3.20;1.60;;;11.10;4.40;;;;;;5013680;28;20502;-86
2021/03/20 12:13:01;;;;;;;3.00;1.47;;;11.20;3.20;;;;;;4998363;28;20886;-86
2021/03/20 12:15:29;;;;;;;2.70;1.63;;;;;;;;;;5015454;28;20213;-87
2021/03/20 12:17:57;;;;;;;2.50;1.47;;;11.60;1.00;;;;;;5015678;28;20166;-86
2021/03/20 12:20:26;;;;;;;4.10;1.70;;;11.70;6.30;;;;;;4998513;28;20431;-87
2021/03/20 12:22:54;;;;;;;1.60;1.03;;;11.60;3.50;;;;;;4998832;28;20793;-86
2021/03/20 12:25:28;;;;;;;2.80;2.10;;;11.50;4.60;;;;;;4998224;28;20431;-86
2021/03/20 12:28:25;;;;;;;4.03;1.47;;;11.50;5.60;;;;;;5014732;28;20425;-86
2021/03/20 12:31:24;;;;;;;3.57;1.90;;;11.10;1.00;;;;;;5014613;28;20938;-87
2021/03/20 12:33:58;;;;;;;4.43;1.47;;;10.80;2.10;;;;;;5015529;28;20415;-87
2021/03/20 12:36:43;;;;;;;3.70;1.63;;;10.50;3.10;;;;;;5015598;28;20526;-87
2021/03/20 12:39:12;;;;;;;4.00;1.80;;;10.50;13.70;;;;;;5016018;28;20418;-87
2021/03/20 12:41:40;;;;;;;3.07;1.00;;;10.70;16.80;;;;;;5016270;28;20412;-87
2021/03/20 12:44:16;;;;;;;2.33;1.50;;;10.60;11.80;;;;;;5016066;28;20492;-87
2021/03/20 12:46:48;;;;;;;2.53;1.60;;;10.40;10.30;;;;;;4998200;28;20934;-87
2021/03/20 12:49:20;;;;;;;3.37;1.57;;;10.10;99.90;;;;;;5016174;28;20411;-86
2021/03/20 12:51:48;;;;;;;1.87;1.63;;;10.30;99.90;;;;;;5014348;28;20419;-86
2021/03/20 12:54:22;;;;;;;2.83;1.83;;;9.90;73.90;;;;;;4999344;28;20460;-87
2021/03/20 12:56:48;;;;;;;4.40;1.60;;;9.50;58.70;;;;;;5017961;28;20468;-86
2021/03/20 12:59:14;;;;;;;6.17;1.87;;;9.20;59.70;;;;;;4996531;28;20951;-86
2021/03/20 13:01:40;;;;;;;2.47;1.70;;;9.00;67.00;;;;;;4993508;28;20474;-83
2021/03/20 13:04:06;;;;;;;5.30;1.73;;;8.70;70.30;;;;;;4993770;28;20650;-84
2021/03/20 13:06:31;;;;;;;4.70;1.93;;;8.70;91.10;;;;;;4994241;28;20171;-85
2021/03/20 13:08:59;;;;;;;3.83;1.53;;;8.70;98.00;;;;;;4994426;28;20251;-85
2021/03/20 13:11:27;;;;;;;3.60;1.90;;;8.80;99.90;;;;;;4995057;28;21200;-85
2021/03/20 13:13:54;;;;;;;3.67;1.70;;;8.80;99.90;;;;;;5006319;28;20434;-87
2021/03/20 13:16:19;;;;;;;3.80;2.70;;;8.80;99.90;;;;;;4995836;28;21059;-86
2021/03/20 13:18:48;;;;;;;3.80;2.33;;;8.70;99.90;;;;;;4996055;28;20414;-85
2021/03/20 13:21:15;;;;;;;4.60;1.60;;;8.50;99.90;;;;;;5013209;28;20182;-86
2021/03/20 13:23:41;;;;;;;2.37;2.10;;;8.50;99.90;;;;;;4994911;28;20410;-85
2021/03/20 13:26:07;;;;;;;7.07;1.90;;;8.50;99.90;;;;;;5012531;28;20433;-86
2021/03/20 13:28:32;;;;;;;3.07;2.37;;;8.20;99.90;;;;;;5012428;28;20531;-85
2021/03/20 13:30:58;;;;;;;3.87;1.73;;;8.10;99.90;;;;;;5011787;28;20179;-85
2021/03/20 13:33:24;;;;;;;4.53;2.23;;;8.10;99.90;;;;;;5012980;28;20175;-85
2021/03/20 13:35:49;;;;;;;3.63;2.40;;;8.00;99.90;;;;;;4995663;28;20230;-86
2021/03/20 13:38:15;;;;;;;2.80;1.80;;;8.10;99.90;;;;;;4998544;28;20266;-90
2021/03/20 13:40:43;;;;;;;3.97;2.90;;;8.20;99.90;;;;;;4997316;28;20179;-89
2021/03/20 13:43:10;;;;;;;4.90;1.90;;;8.20;99.90;;;;;;5001008;28;20418;-88
2021/03/20 13:45:37;;;;;;;2.63;1.73;;;8.10;99.90;;;;;;5016597;28;20950;-87
2021/03/20 13:48:04;;;;;;;3.90;2.80;;;8.20;99.90;;;;;;5018258;28;20424;-84